sensor_id;sensor_type;location;lat;lon;timestamp;pressure;altitude;pressure_sealevel;temperature;humidity
62126;BME280;69591;53.282;6.150;2023-06-01T00:00:48;102709.84;;;18.68;55.41
62126;BME280;69591;53.282;6.150;2023-06-01T00:01:52;102711.78;;;18.67;55.41
62126;BME280;69591;53.282;6.150;2023-06-01T00:02:54;102707.13;;;18.68;55.46
62126;BME280;69591;53.282;6.150;2023-06-01T00:03:55;102702.44;;;18.68;55.29
62126;BME280;69591;53.282;6.150;2023-06-01T00:04:57;102707.91;;;18.68;55.25
62126;BME280;69591;53.282;6.150;2023-06-01T00:05:58;102700.50;;;18.69;55.36
62126;BME280;69591;53.282;6.150;2023-06-01T00:07:00;102706.31;;;18.67;55.54
62126;BME280;69591;53.282;6.150;2023-06-01T00:08:01;102703.59;;;18.67;55.34
62126;BME280;69591;53.282;6.150;2023-06-01T00:09:03;102704.38;;;18.68;55.44
62126;BME280;69591;53.282;6.150;2023-06-01T00:10:05;102705.50;;;18.67;55.44
62126;BME280;69591;53.282;6.150;2023-06-01T00:11:06;102701.19;;;18.66;55.51
62126;BME280;69591;53.282;6.150;2023-06-01T00:12:08;102706.31;;;18.67;55.34
62126;BME280;69591;53.282;6.150;2023-06-01T00:13:10;102695.38;;;18.67;55.28
62126;BME280;69591;53.282;6.150;2023-06-01T00:14:11;102703.59;;;18.67;55.43
62126;BME280;69591;53.282;6.150;2023-06-01T00:15:13;102698.09;;;18.67;55.34
62126;BME280;69591;53.282;6.150;2023-06-01T00:16:14;102700.84;;;18.67;55.44
62126;BME280;69591;53.282;6.150;2023-06-01T00:17:17;102702.78;;;18.67;55.37
62126;BME280;69591;53.282;6.150;2023-06-01T00:18:19;102706.31;;;18.67;55.61
62126;BME280;69591;53.282;6.150;2023-06-01T00:19:20;102704.72;;;18.66;55.33
62126;BME280;69591;53.282;6.150;2023-06-01T00:20:22;102699.25;;;18.66;55.34
62126;BME280;69591;53.282;6.150;2023-06-01T00:21:23;102703.59;;;18.67;55.44
62126;BME280;69591;53.282;6.150;2023-06-01T00:22:25;102694.56;;;18.67;55.44
62126;BME280;69591;53.282;6.150;2023-06-01T00:23:26;102696.50;;;18.66;55.45
62126;BME280;69591;53.282;6.150;2023-06-01T00:24:28;102696.50;;;18.66;55.43
62126;BME280;69591;53.282;6.150;2023-06-01T00:25:29;102704.72;;;18.66;55.52
62126;BME280;69591;53.282;6.150;2023-06-01T00:26:31;102700.84;;;18.67;55.44
62126;BME280;69591;53.282;6.150;2023-06-01T00:27:33;102692.19;;;18.65;55.44
62126;BME280;69591;53.282;6.150;2023-06-01T00:28:34;102683.97;;;18.65;55.54
62126;BME280;69591;53.282;6.150;2023-06-01T00:29:36;102687.50;;;18.66;55.34
62126;BME280;69591;53.282;6.150;2023-06-01T00:30:37;102679.31;;;18.66;55.46
62126;BME280;69591;53.282;6.150;2023-06-01T00:31:39;102690.25;;;18.66;55.10
62126;BME280;69591;53.282;6.150;2023-06-01T00:32:42;102684.78;;;18.66;55.47
62126;BME280;69591;53.282;6.150;2023-06-01T00:33:43;102693.00;;;18.66;55.30
62126;BME280;69591;53.282;6.150;2023-06-01T00:34:45;102691.03;;;18.66;55.40
62126;BME280;69591;53.282;6.150;2023-06-01T00:35:46;102684.78;;;18.66;55.48
62126;BME280;69591;53.282;6.150;2023-06-01T00:36:48;102693.00;;;18.66;55.46
62126;BME280;69591;53.282;6.150;2023-06-01T00:37:49;102692.19;;;18.65;55.37
62126;BME280;69591;53.282;6.150;2023-06-01T00:38:51;102687.88;;;18.64;55.48
62126;BME280;69591;53.282;6.150;2023-06-01T00:39:52;102692.19;;;18.65;55.50
62126;BME280;69591;53.282;6.150;2023-06-01T00:40:54;102692.19;;;18.65;55.42
62126;BME280;69591;53.282;6.150;2023-06-01T00:41:55;102692.19;;;18.65;55.43
62126;BME280;69591;53.282;6.150;2023-06-01T00:42:59;102678.50;;;18.65;55.38
62126;BME280;69591;53.282;6.150;2023-06-01T00:44:00;102685.91;;;18.65;55.55
62126;BME280;69591;53.282;6.150;2023-06-01T00:45:02;102686.72;;;18.65;55.42
62126;BME280;69591;53.282;6.150;2023-06-01T00:46:03;102692.19;;;18.65;55.43
62126;BME280;69591;53.282;6.150;2023-06-01T00:47:05;102682.41;;;18.64;55.38
62126;BME280;69591;53.282;6.150;2023-06-01T00:48:08;102686.72;;;18.65;55.40
62126;BME280;69591;53.282;6.150;2023-06-01T00:49:10;102683.53;;;18.63;55.30
62126;BME280;69591;53.282;6.150;2023-06-01T00:50:12;102685.91;;;18.65;55.28
62126;BME280;69591;53.282;6.150;2023-06-01T00:51:14;102683.53;;;18.63;55.35
62126;BME280;69591;53.282;6.150;2023-06-01T00:52:15;102683.53;;;18.63;55.40
62126;BME280;69591;53.282;6.150;2023-06-01T00:53:18;102676.91;;;18.64;55.35
62126;BME280;69591;53.282;6.150;2023-06-01T00:54:19;102677.28;;;18.63;55.32
62126;BME280;69591;53.282;6.150;2023-06-01T00:55:21;102681.94;;;18.62;55.38
62126;BME280;69591;53.282;6.150;2023-06-01T00:56:23;102678.03;;;18.63;55.45
62126;BME280;69591;53.282;6.150;2023-06-01T00:57:24;102682.41;;;18.64;55.33
62126;BME280;69591;53.282;6.150;2023-06-01T00:58:26;102678.03;;;18.63;55.23
62126;BME280;69591;53.282;6.150;2023-06-01T00:59:27;102680.78;;;18.63;55.47
62126;BME280;69591;53.282;6.150;2023-06-01T01:01:39;102679.19;;;18.62;55.42
62126;BME280;69591;53.282;6.150;2023-06-01T01:02:41;102678.03;;;18.63;55.31
62126;BME280;69591;53.282;6.150;2023-06-01T01:03:44;102677.28;;;18.63;55.28
62126;BME280;69591;53.282;6.150;2023-06-01T01:04:46;102681.94;;;18.62;55.30
62126;BME280;69591;53.282;6.150;2023-06-01T01:05:48;102674.88;;;18.61;55.29
62126;BME280;69591;53.282;6.150;2023-06-01T01:06:51;102676.47;;;18.62;55.33
62126;BME280;69591;53.282;6.150;2023-06-01T01:07:56;102680.00;;;18.63;55.38
62126;BME280;69591;53.282;6.150;2023-06-01T01:09:08;102676.47;;;18.62;55.49
62126;BME280;69591;53.282;6.150;2023-06-01T01:10:13;102675.66;;;18.62;55.38
62126;BME280;69591;53.282;6.150;2023-06-01T01:11:19;102671.00;;;18.62;55.41
62126;BME280;69591;53.282;6.150;2023-06-01T01:12:23;102671.00;;;18.62;55.46
62126;BME280;69591;53.282;6.150;2023-06-01T01:13:30;102683.53;;;18.63;55.35
62126;BME280;69591;53.282;6.150;2023-06-01T01:14:35;102678.03;;;18.63;55.48
62126;BME280;69591;53.282;6.150;2023-06-01T01:15:41;102679.19;;;18.62;55.41
62126;BME280;69591;53.282;6.150;2023-06-01T01:16:46;102675.66;;;18.62;55.43
62126;BME280;69591;53.282;6.150;2023-06-01T01:17:50;102675.66;;;18.62;55.45
62126;BME280;69591;53.282;6.150;2023-06-01T01:18:57;102676.47;;;18.62;55.25
62126;BME280;69591;53.282;6.150;2023-06-01T01:20:01;102681.13;;;18.62;55.40
62126;BME280;69591;53.282;6.150;2023-06-01T01:21:03;102676.81;;;18.61;55.25
62126;BME280;69591;53.282;6.150;2023-06-01T01:22:07;102674.09;;;18.61;55.32
62126;BME280;69591;53.282;6.150;2023-06-01T01:23:20;102674.88;;;18.61;55.37
62126;BME280;69591;53.282;6.150;2023-06-01T01:24:33;102679.19;;;18.62;55.32
62126;BME280;69591;53.282;6.150;2023-06-01T01:25:45;102669.41;;;18.61;55.48
62126;BME280;69591;53.282;6.150;2023-06-01T01:26:56;102678.41;;;18.62;55.45
62126;BME280;69591;53.282;6.150;2023-06-01T01:28:08;102666.69;;;18.61;55.12
62126;BME280;69591;53.282;6.150;2023-06-01T01:29:13;102674.88;;;18.61;55.38
62126;BME280;69591;53.282;6.150;2023-06-01T01:30:16;102674.09;;;18.61;55.47
62126;BME280;69591;53.282;6.150;2023-06-01T01:31:22;102677.63;;;18.61;55.33
62126;BME280;69591;53.282;6.150;2023-06-01T01:32:26;102669.41;;;18.61;55.43
62126;BME280;69591;53.282;6.150;2023-06-01T01:33:28;102668.63;;;18.61;55.35
62126;BME280;69591;53.282;6.150;2023-06-01T01:34:30;102676.81;;;18.61;55.43
62126;BME280;69591;53.282;6.150;2023-06-01T01:35:32;102680.34;;;18.61;55.34
62126;BME280;69591;53.282;6.150;2023-06-01T01:36:34;102672.50;;;18.60;55.36
62126;BME280;69591;53.282;6.150;2023-06-01T01:37:36;102673.28;;;18.60;55.45
62126;BME280;69591;53.282;6.150;2023-06-01T01:38:38;102662.34;;;18.60;55.38
62126;BME280;69591;53.282;6.150;2023-06-01T01:39:39;102673.28;;;18.60;55.41
62126;BME280;69591;53.282;6.150;2023-06-01T01:40:41;102674.09;;;18.61;55.33
62126;BME280;69591;53.282;6.150;2023-06-01T01:41:42;102667.81;;;18.60;55.45
62126;BME280;69591;53.282;6.150;2023-06-01T01:42:44;102658.47;;;18.61;55.22
62126;BME280;69591;53.282;6.150;2023-06-01T01:43:46;102665.06;;;18.60;55.41
62126;BME280;69591;53.282;6.150;2023-06-01T01:44:49;102667.03;;;18.60;55.49
62126;BME280;69591;53.282;6.150;2023-06-01T01:45:52;102667.03;;;18.60;55.42
62126;BME280;69591;53.282;6.150;2023-06-01T01:46:57;102663.16;;;18.61;55.41
62126;BME280;69591;53.282;6.150;2023-06-01T01:48:03;102662.34;;;18.60;55.29
62126;BME280;69591;53.282;6.150;2023-06-01T01:49:07;102667.03;;;18.60;55.40
62126;BME280;69591;53.282;6.150;2023-06-01T01:50:10;102662.34;;;18.60;55.40
62126;BME280;69591;53.282;6.150;2023-06-01T01:51:14;102660.75;;;18.59;55.46
62126;BME280;69591;53.282;6.150;2023-06-01T01:52:19;102658.03;;;18.59;55.36
62126;BME280;69591;53.282;6.150;2023-06-01T01:53:23;102666.22;;;18.59;55.71
62126;BME280;69591;53.282;6.150;2023-06-01T01:54:25;102666.22;;;18.59;55.45
62126;BME280;69591;53.282;6.150;2023-06-01T01:55:29;102660.75;;;18.59;55.44
62126;BME280;69591;53.282;6.150;2023-06-01T01:56:31;102655.28;;;18.59;55.29
62126;BME280;69591;53.282;6.150;2023-06-01T01:57:34;102659.19;;;18.58;55.52
62126;BME280;69591;53.282;6.150;2023-06-01T01:58:36;102655.28;;;18.59;55.36
62126;BME280;69591;53.282;6.150;2023-06-01T01:59:38;102657.22;;;18.59;55.34
62126;BME280;69591;53.282;6.150;2023-06-01T02:00:42;102661.56;;;18.60;55.33
62126;BME280;69591;53.282;6.150;2023-06-01T02:01:45;102653.72;;;18.58;55.30
62126;BME280;69591;53.282;6.150;2023-06-01T02:02:47;102659.94;;;18.59;55.51
62126;BME280;69591;53.282;6.150;2023-06-01T02:03:57;102656.44;;;18.58;55.33
62126;BME280;69591;53.282;6.150;2023-06-01T02:04:59;102656.44;;;18.58;55.30
62126;BME280;69591;53.282;6.150;2023-06-01T02:06:00;102654.47;;;18.59;55.30
62126;BME280;69591;53.282;6.150;2023-06-01T02:07:02;102656.44;;;18.58;55.37
62126;BME280;69591;53.282;6.150;2023-06-01T02:08:06;102652.91;;;18.58;55.28
62126;BME280;69591;53.282;6.150;2023-06-01T02:09:08;102654.47;;;18.59;55.49
62126;BME280;69591;53.282;6.150;2023-06-01T02:10:11;102653.72;;;18.58;55.34
62126;BME280;69591;53.282;6.150;2023-06-01T02:11:13;102655.63;;;18.58;55.33
62126;BME280;69591;53.282;6.150;2023-06-01T02:12:15;102648.22;;;18.58;55.38
62126;BME280;69591;53.282;6.150;2023-06-01T02:13:17;102649.38;;;18.57;55.43
62126;BME280;69591;53.282;6.150;2023-06-01T02:14:19;102642.75;;;18.58;55.35
62126;BME280;69591;53.282;6.150;2023-06-01T02:15:20;102648.22;;;18.58;55.46
62126;BME280;69591;53.282;6.150;2023-06-01T02:16:23;102641.97;;;18.58;55.41
62126;BME280;69591;53.282;6.150;2023-06-01T02:17:25;102647.44;;;18.58;55.51
62126;BME280;69591;53.282;6.150;2023-06-01T02:18:27;102646.63;;;18.57;55.46
62126;BME280;69591;53.282;6.150;2023-06-01T02:19:28;102641.16;;;18.57;55.31
62126;BME280;69591;53.282;6.150;2023-06-01T02:20:30;102641.97;;;18.58;55.46
62126;BME280;69591;53.282;6.150;2023-06-01T02:21:32;102635.69;;;18.57;55.48
62126;BME280;69591;53.282;6.150;2023-06-01T02:22:35;102634.88;;;18.57;55.32
62126;BME280;69591;53.282;6.150;2023-06-01T02:23:37;102647.44;;;18.58;55.45
62126;BME280;69591;53.282;6.150;2023-06-01T02:24:38;102638.41;;;18.57;55.43
62126;BME280;69591;53.282;6.150;2023-06-01T02:25:40;102637.63;;;18.57;55.34
62126;BME280;69591;53.282;6.150;2023-06-01T02:26:42;102629.41;;;18.57;55.36
62126;BME280;69591;53.282;6.150;2023-06-01T02:27:44;102631.00;;;18.58;55.39
62126;BME280;69591;53.282;6.150;2023-06-01T02:28:45;102635.69;;;18.57;55.28
62126;BME280;69591;53.282;6.150;2023-06-01T02:29:47;102634.09;;;18.56;55.64
62126;BME280;69591;53.282;6.150;2023-06-01T02:30:49;102623.94;;;18.57;55.32
62126;BME280;69591;53.282;6.150;2023-06-01T02:31:52;102635.69;;;18.57;55.33
62126;BME280;69591;53.282;6.150;2023-06-01T02:32:53;102628.63;;;18.56;55.50
62126;BME280;69591;53.282;6.150;2023-06-01T02:33:55;102627.81;;;18.56;55.30
62126;BME280;69591;53.282;6.150;2023-06-01T02:34:57;102634.09;;;18.56;55.43
62126;BME280;69591;53.282;6.150;2023-06-01T02:35:59;102632.13;;;18.57;55.44
62126;BME280;69591;53.282;6.150;2023-06-01T02:37:00;102634.09;;;18.56;55.35
62126;BME280;69591;53.282;6.150;2023-06-01T02:38:02;102635.69;;;18.57;55.46
62126;BME280;69591;53.282;6.150;2023-06-01T02:39:04;102632.13;;;18.57;55.43
62126;BME280;69591;53.282;6.150;2023-06-01T02:40:07;102624.28;;;18.55;55.40
62126;BME280;69591;53.282;6.150;2023-06-01T02:41:09;102629.75;;;18.55;55.34
62126;BME280;69591;53.282;6.150;2023-06-01T02:42:10;102627.81;;;18.56;55.37
62126;BME280;69591;53.282;6.150;2023-06-01T02:43:12;102627.03;;;18.55;55.32
62126;BME280;69591;53.282;6.150;2023-06-01T02:44:14;102621.56;;;18.55;55.30
62126;BME280;69591;53.282;6.150;2023-06-01T02:45:16;102627.81;;;18.56;55.31
62126;BME280;69591;53.282;6.150;2023-06-01T02:46:18;102619.63;;;18.56;55.43
62126;BME280;69591;53.282;6.150;2023-06-01T02:47:21;102616.88;;;18.56;55.44
62126;BME280;69591;53.282;6.150;2023-06-01T02:48:22;102627.03;;;18.55;55.35
62126;BME280;69591;53.282;6.150;2023-06-01T02:49:24;102616.06;;;18.55;55.49
62126;BME280;69591;53.282;6.150;2023-06-01T02:50:26;102616.06;;;18.55;55.38
62126;BME280;69591;53.282;6.150;2023-06-01T02:51:28;102616.88;;;18.56;55.25
62126;BME280;69591;53.282;6.150;2023-06-01T02:52:39;102616.06;;;18.55;55.29
62126;BME280;69591;53.282;6.150;2023-06-01T02:53:41;102615.31;;;18.55;55.37
62126;BME280;69591;53.282;6.150;2023-06-01T02:54:46;102619.97;;;18.54;55.45
62126;BME280;69591;53.282;6.150;2023-06-01T02:56:09;102615.31;;;18.55;55.34
62126;BME280;69591;53.282;6.150;2023-06-01T02:57:34;102615.31;;;18.55;55.35
62126;BME280;69591;53.282;6.150;2023-06-01T02:58:38;102609.03;;;18.54;55.34
62126;BME280;69591;53.282;6.150;2023-06-01T02:59:52;102613.34;;;18.55;55.37
62126;BME280;69591;53.282;6.150;2023-06-01T03:00:53;102609.03;;;18.54;55.45
62126;BME280;69591;53.282;6.150;2023-06-01T03:01:55;102610.97;;;18.54;55.30
62126;BME280;69591;53.282;6.150;2023-06-01T03:02:58;102608.22;;;18.54;55.37
62126;BME280;69591;53.282;6.150;2023-06-01T03:04:00;102609.84;;;18.55;55.27
62126;BME280;69591;53.282;6.150;2023-06-01T03:05:02;102610.59;;;18.55;55.30
62126;BME280;69591;53.282;6.150;2023-06-01T03:06:04;102602.34;;;18.52;55.43
62126;BME280;69591;53.282;6.150;2023-06-01T03:07:31;102614.50;;;18.54;55.36
62126;BME280;69591;53.282;6.150;2023-06-01T03:08:43;102600.81;;;18.54;55.64
62126;BME280;69591;53.282;6.150;2023-06-01T03:10:00;102604.72;;;18.53;55.51
62126;BME280;69591;53.282;6.150;2023-06-01T03:11:20;102611.75;;;18.54;55.42
62126;BME280;69591;53.282;6.150;2023-06-01T03:12:22;102601.97;;;18.53;55.38
62126;BME280;69591;53.282;6.150;2023-06-01T03:13:23;102608.22;;;18.54;55.42
62126;BME280;69591;53.282;6.150;2023-06-01T03:14:25;102602.75;;;18.54;55.52
62126;BME280;69591;53.282;6.150;2023-06-01T03:15:27;102602.75;;;18.54;55.27
62126;BME280;69591;53.282;6.150;2023-06-01T03:16:28;102598.44;;;18.53;55.37
62126;BME280;69591;53.282;6.150;2023-06-01T03:17:41;102607.44;;;18.53;55.42
62126;BME280;69591;53.282;6.150;2023-06-01T03:18:44;102607.44;;;18.53;55.38
62126;BME280;69591;53.282;6.150;2023-06-01T03:19:46;102601.97;;;18.53;55.40
62126;BME280;69591;53.282;6.150;2023-06-01T03:20:55;102601.97;;;18.53;55.46
62126;BME280;69591;53.282;6.150;2023-06-01T03:21:57;102601.19;;;18.53;55.37
62126;BME280;69591;53.282;6.150;2023-06-01T03:22:58;102601.97;;;18.53;55.34
62126;BME280;69591;53.282;6.150;2023-06-01T03:24:00;102597.63;;;18.52;55.38
62126;BME280;69591;53.282;6.150;2023-06-01T03:25:02;102599.59;;;18.52;55.33
62126;BME280;69591;53.282;6.150;2023-06-01T03:26:04;102596.50;;;18.53;55.22
62126;BME280;69591;53.282;6.150;2023-06-01T03:27:06;102603.91;;;18.53;55.54
62126;BME280;69591;53.282;6.150;2023-06-01T03:28:10;102606.66;;;18.53;55.50
62126;BME280;69591;53.282;6.150;2023-06-01T03:29:13;102601.97;;;18.53;55.43
62126;BME280;69591;53.282;6.150;2023-06-01T03:30:16;102600.38;;;18.52;55.37
62126;BME280;69591;53.282;6.150;2023-06-01T03:31:18;102605.06;;;18.52;55.59
62126;BME280;69591;53.282;6.150;2023-06-01T03:32:20;102599.25;;;18.53;55.50
62126;BME280;69591;53.282;6.150;2023-06-01T03:33:23;102594.13;;;18.52;55.47
62126;BME280;69591;53.282;6.150;2023-06-01T03:34:26;102599.59;;;18.52;55.47
62126;BME280;69591;53.282;6.150;2023-06-01T03:35:27;102594.91;;;18.52;55.42
62126;BME280;69591;53.282;6.150;2023-06-01T03:36:29;102594.91;;;18.52;55.37
62126;BME280;69591;53.282;6.150;2023-06-01T03:37:31;102597.63;;;18.52;55.31
62126;BME280;69591;53.282;6.150;2023-06-01T03:38:32;102591.41;;;18.52;55.35
62126;BME280;69591;53.282;6.150;2023-06-01T03:39:34;102602.34;;;18.52;55.34
62126;BME280;69591;53.282;6.150;2023-06-01T03:40:38;102597.63;;;18.52;55.49
62126;BME280;69591;53.282;6.150;2023-06-01T03:41:39;102594.91;;;18.52;55.42
62126;BME280;69591;53.282;6.150;2023-06-01T03:42:42;102602.34;;;18.52;55.50
62126;BME280;69591;53.282;6.150;2023-06-01T03:43:43;102592.16;;;18.52;55.38
62126;BME280;69591;53.282;6.150;2023-06-01T03:44:45;102597.63;;;18.52;55.36
62126;BME280;69591;53.282;6.150;2023-06-01T03:45:47;102600.38;;;18.52;55.47
62126;BME280;69591;53.282;6.150;2023-06-01T03:46:48;102590.59;;;18.51;55.54
62126;BME280;69591;53.282;6.150;2023-06-01T03:47:50;102593.31;;;18.51;55.22
62126;BME280;69591;53.282;6.150;2023-06-01T03:48:52;102590.59;;;18.51;55.49
62126;BME280;69591;53.282;6.150;2023-06-01T03:49:55;102596.06;;;18.51;55.33
62126;BME280;69591;53.282;6.150;2023-06-01T03:50:57;102599.59;;;18.52;55.50
62126;BME280;69591;53.282;6.150;2023-06-01T03:51:59;102595.25;;;18.51;55.50
62126;BME280;69591;53.282;6.150;2023-06-01T03:53:00;102593.31;;;18.51;55.40
62126;BME280;69591;53.282;6.150;2023-06-01T03:54:02;102598.78;;;18.51;55.35
62126;BME280;69591;53.282;6.150;2023-06-01T03:55:04;102598.78;;;18.51;55.42
62126;BME280;69591;53.282;6.150;2023-06-01T03:56:25;102593.31;;;18.51;55.42
62126;BME280;69591;53.282;6.150;2023-06-01T03:57:30;102598.78;;;18.51;55.50
62126;BME280;69591;53.282;6.150;2023-06-01T03:58:32;102603.47;;;18.51;55.36
62126;BME280;69591;53.282;6.150;2023-06-01T03:59:34;102607.00;;;18.51;55.38
62126;BME280;69591;53.282;6.150;2023-06-01T04:00:35;102604.25;;;18.51;55.40
62126;BME280;69591;53.282;6.150;2023-06-01T04:01:38;102597.22;;;18.50;55.36
62126;BME280;69591;53.282;6.150;2023-06-01T04:02:41;102599.94;;;18.50;55.51
62126;BME280;69591;53.282;6.150;2023-06-01T04:03:43;102603.47;;;18.51;55.36
62126;BME280;69591;53.282;6.150;2023-06-01T04:04:45;102597.22;;;18.50;55.46
62126;BME280;69591;53.282;6.150;2023-06-01T04:05:48;102597.22;;;18.50;55.49
62126;BME280;69591;53.282;6.150;2023-06-01T04:06:49;102598.78;;;18.51;55.45
62126;BME280;69591;53.282;6.150;2023-06-01T04:07:52;102608.94;;;18.51;55.68
62126;BME280;69591;53.282;6.150;2023-06-01T04:08:53;102597.22;;;18.50;55.34
62126;BME280;69591;53.282;6.150;2023-06-01T04:09:55;102599.94;;;18.50;55.35
62126;BME280;69591;53.282;6.150;2023-06-01T04:10:57;102595.59;;;18.49;55.50
62126;BME280;69591;53.282;6.150;2023-06-01T04:11:59;102597.22;;;18.50;55.54
62126;BME280;69591;53.282;6.150;2023-06-01T04:13:01;102599.16;;;18.50;55.59
62126;BME280;69591;53.282;6.150;2023-06-01T04:14:03;102595.59;;;18.49;55.51
62126;BME280;69591;53.282;6.150;2023-06-01T04:15:07;102601.06;;;18.49;55.50
62126;BME280;69591;53.282;6.150;2023-06-01T04:16:09;102602.69;;;18.50;55.50
62126;BME280;69591;53.282;6.150;2023-06-01T04:17:13;102593.69;;;18.50;55.33
62126;BME280;69591;53.282;6.150;2023-06-01T04:18:15;102601.88;;;18.50;55.54
62126;BME280;69591;53.282;6.150;2023-06-01T04:19:29;102594.47;;;18.50;55.52
62126;BME280;69591;53.282;6.150;2023-06-01T04:20:36;102589.00;;;18.50;55.46
62126;BME280;69591;53.282;6.150;2023-06-01T04:21:39;102597.22;;;18.50;55.52
62126;BME280;69591;53.282;6.150;2023-06-01T04:22:41;102586.63;;;18.49;55.34
62126;BME280;69591;53.282;6.150;2023-06-01T04:23:43;102594.47;;;18.50;55.35
62126;BME280;69591;53.282;6.150;2023-06-01T04:24:47;102596.41;;;18.50;55.31
62126;BME280;69591;53.282;6.150;2023-06-01T04:25:48;102590.94;;;18.50;55.51
62126;BME280;69591;53.282;6.150;2023-06-01T04:26:50;102592.88;;;18.49;55.45
62126;BME280;69591;53.282;6.150;2023-06-01T04:27:52;102597.22;;;18.50;55.43
62126;BME280;69591;53.282;6.150;2023-06-01T04:28:54;102589.38;;;18.49;55.55
62126;BME280;69591;53.282;6.150;2023-06-01T04:29:56;102598.34;;;18.49;55.44
62126;BME280;69591;53.282;6.150;2023-06-01T04:30:57;102590.13;;;18.49;55.53
62126;BME280;69591;53.282;6.150;2023-06-01T04:32:00;102591.75;;;18.50;55.52
62126;BME280;69591;53.282;6.150;2023-06-01T04:33:02;102587.41;;;18.49;55.47
62126;BME280;69591;53.282;6.150;2023-06-01T04:34:07;102592.88;;;18.49;55.40
62126;BME280;69591;53.282;6.150;2023-06-01T04:35:09;102590.13;;;18.49;55.53
62126;BME280;69591;53.282;6.150;2023-06-01T04:36:11;102596.75;;;18.48;55.47
62126;BME280;69591;53.282;6.150;2023-06-01T04:37:15;102594.47;;;18.50;55.47
62126;BME280;69591;53.282;6.150;2023-06-01T04:38:17;102590.13;;;18.49;55.57
62126;BME280;69591;53.282;6.150;2023-06-01T04:39:20;102596.41;;;18.50;55.40
62126;BME280;69591;53.282;6.150;2023-06-01T04:40:22;102595.59;;;18.49;55.32
62126;BME280;69591;53.282;6.150;2023-06-01T04:41:24;102594.03;;;18.48;55.53
62126;BME280;69591;53.282;6.150;2023-06-01T04:42:26;102594.84;;;18.49;55.55
62126;BME280;69591;53.282;6.150;2023-06-01T04:43:27;102594.03;;;18.48;55.42
62126;BME280;69591;53.282;6.150;2023-06-01T04:44:29;102594.03;;;18.48;55.48
62126;BME280;69591;53.282;6.150;2023-06-01T04:45:31;102593.22;;;18.48;55.57
62126;BME280;69591;53.282;6.150;2023-06-01T04:46:33;102597.88;;;18.47;55.42
62126;BME280;69591;53.282;6.150;2023-06-01T04:47:35;102594.03;;;18.48;55.53
62126;BME280;69591;53.282;6.150;2023-06-01T04:48:37;102591.28;;;18.48;55.43
62126;BME280;69591;53.282;6.150;2023-06-01T04:49:40;102594.03;;;18.48;55.56
62126;BME280;69591;53.282;6.150;2023-06-01T04:50:42;102594.03;;;18.48;55.48
62126;BME280;69591;53.282;6.150;2023-06-01T04:51:44;102599.50;;;18.48;55.57
62126;BME280;69591;53.282;6.150;2023-06-01T04:52:47;102601.44;;;18.48;55.52
62126;BME280;69591;53.282;6.150;2023-06-01T04:53:50;102596.75;;;18.48;55.46
62126;BME280;69591;53.282;6.150;2023-06-01T04:54:52;102593.22;;;18.48;55.48
62126;BME280;69591;53.282;6.150;2023-06-01T04:55:54;102591.28;;;18.48;55.57
62126;BME280;69591;53.282;6.150;2023-06-01T04:56:56;102586.94;;;18.47;55.43
62126;BME280;69591;53.282;6.150;2023-06-01T04:57:57;102586.94;;;18.47;55.49
62126;BME280;69591;53.282;6.150;2023-06-01T04:58:59;102581.47;;;18.47;55.37
62126;BME280;69591;53.282;6.150;2023-06-01T05:00:03;102583.09;;;18.48;55.59
62126;BME280;69591;53.282;6.150;2023-06-01T05:01:05;102583.09;;;18.48;55.57
62126;BME280;69591;53.282;6.150;2023-06-01T05:02:07;102590.50;;;18.48;55.49
62126;BME280;69591;53.282;6.150;2023-06-01T05:03:09;102586.94;;;18.47;55.50
62126;BME280;69591;53.282;6.150;2023-06-01T05:04:10;102589.69;;;18.47;55.55
62126;BME280;69591;53.282;6.150;2023-06-01T05:05:13;102593.22;;;18.48;55.39
62126;BME280;69591;53.282;6.150;2023-06-01T05:06:16;102588.56;;;18.48;55.46
62126;BME280;69591;53.282;6.150;2023-06-01T05:07:17;102584.22;;;18.47;55.56
62126;BME280;69591;53.282;6.150;2023-06-01T05:08:20;102594.03;;;18.48;55.50
62126;BME280;69591;53.282;6.150;2023-06-01T05:09:22;102590.50;;;18.48;55.49
62126;BME280;69591;53.282;6.150;2023-06-01T05:10:24;102592.41;;;18.47;55.56
62126;BME280;69591;53.282;6.150;2023-06-01T05:11:25;102597.88;;;18.47;55.53
62126;BME280;69591;53.282;6.150;2023-06-01T05:12:27;102593.22;;;18.48;55.42
62126;BME280;69591;53.282;6.150;2023-06-01T05:13:29;102591.66;;;18.47;55.54
62126;BME280;69591;53.282;6.150;2023-06-01T05:14:31;102595.16;;;18.47;55.42
62126;BME280;69591;53.282;6.150;2023-06-01T05:15:32;102594.03;;;18.48;55.57
62126;BME280;69591;53.282;6.150;2023-06-01T05:16:34;102595.16;;;18.47;55.44
62126;BME280;69591;53.282;6.150;2023-06-01T05:17:36;102596.31;;;18.46;55.44
62126;BME280;69591;53.282;6.150;2023-06-01T05:18:40;102586.94;;;18.47;55.75
62126;BME280;69591;53.282;6.150;2023-06-01T05:19:43;102590.84;;;18.46;55.54
62126;BME280;69591;53.282;6.150;2023-06-01T05:20:45;102592.41;;;18.47;55.66
62126;BME280;69591;53.282;6.150;2023-06-01T05:21:48;102583.44;;;18.47;55.54
62126;BME280;69591;53.282;6.150;2023-06-01T05:22:50;102583.44;;;18.47;55.64
62126;BME280;69591;53.282;6.150;2023-06-01T05:23:53;102592.41;;;18.47;55.49
62126;BME280;69591;53.282;6.150;2023-06-01T05:24:54;102586.94;;;18.47;55.47
62126;BME280;69591;53.282;6.150;2023-06-01T05:25:56;102586.94;;;18.47;55.48
62126;BME280;69591;53.282;6.150;2023-06-01T05:26:58;102581.47;;;18.47;55.64
62126;BME280;69591;53.282;6.150;2023-06-01T05:27:59;102582.63;;;18.46;55.54
62126;BME280;69591;53.282;6.150;2023-06-01T05:29:01;102592.41;;;18.47;55.46
62126;BME280;69591;53.282;6.150;2023-06-01T05:30:04;102586.94;;;18.47;55.48
62126;BME280;69591;53.282;6.150;2023-06-01T05:31:05;102575.25;;;18.47;55.49